sensor_id;sensor_type;location;lat;lon;timestamp;pressure;altitude;pressure_sealevel;temperature;humidity
65760;BME280;52496;51.082;5.066;2022-11-11T00:02:08;102829.88;;;8.28;100.00
65760;BME280;52496;51.082;5.066;2022-11-11T00:04:39;102849.22;;;8.31;100.00
65760;BME280;52496;51.082;5.066;2022-11-11T00:07:09;102841.97;;;8.33;100.00
65760;BME280;52496;51.082;5.066;2022-11-11T00:09:40;102845.38;;;8.35;100.00
65760;BME280;52496;51.082;5.066;2022-11-11T00:12:11;102850.56;;;8.36;100.00
65760;BME280;52496;51.082;5.066;2022-11-11T00:14:41;102849.63;;;8.37;100.00
65760;BME280;52496;51.082;5.066;2022-11-11T00:17:12;102867.09;;;8.41;100.00
65760;BME280;52496;51.082;5.066;2022-11-11T00:20:01;102861.53;;;8.44;100.00
65760;BME280;52496;51.082;5.066;2022-11-11T00:22:51;102862.03;;;8.49;100.00
65760;BME280;52496;51.082;5.066;2022-11-11T00:25:40;102870.63;;;8.53;100.00
65760;BME280;52496;51.082;5.066;2022-11-11T00:28:11;102866.03;;;8.55;100.00
65760;BME280;52496;51.082;5.066;2022-11-11T00:30:41;102864.81;;;8.59;100.00
65760;BME280;52496;51.082;5.066;2022-11-11T00:33:12;102869.91;;;8.62;100.00
65760;BME280;52496;51.082;5.066;2022-11-11T00:35:42;102858.97;;;8.65;100.00
65760;BME280;52496;51.082;5.066;2022-11-11T00:38:22;102849.75;;;8.69;100.00
65760;BME280;52496;51.082;5.066;2022-11-11T00:41:17;102865.50;;;8.72;100.00
65760;BME280;52496;51.082;5.066;2022-11-11T00:43:48;102864.56;;;8.73;100.00
65760;BME280;52496;51.082;5.066;2022-11-11T00:46:19;102862.59;;;8.76;100.00
65760;BME280;52496;51.082;5.066;2022-11-11T00:49:08;102875.69;;;8.79;100.00
65760;BME280;52496;51.082;5.066;2022-11-11T00:51:57;102872.31;;;8.77;100.00
65760;BME280;52496;51.082;5.066;2022-11-11T00:54:28;102871.59;;;8.75;100.00
65760;BME280;52496;51.082;5.066;2022-11-11T00:56:58;102872.56;;;8.73;100.00
65760;BME280;52496;51.082;5.066;2022-11-11T00:59:29;102871.09;;;8.69;100.00
65760;BME280;52496;51.082;5.066;2022-11-11T01:01:59;102866.00;;;8.66;100.00
65760;BME280;52496;51.082;5.066;2022-11-11T01:04:30;102869.91;;;8.62;100.00
65760;BME280;52496;51.082;5.066;2022-11-11T01:07:00;102864.19;;;8.56;100.00
65760;BME280;52496;51.082;5.066;2022-11-11T01:09:31;102867.22;;;8.51;100.00
65760;BME280;52496;51.082;5.066;2022-11-11T01:12:02;102864.78;;;8.48;100.00
65760;BME280;52496;51.082;5.066;2022-11-11T01:14:32;102869.63;;;8.43;100.00
65760;BME280;52496;51.082;5.066;2022-11-11T01:17:03;102863.81;;;8.38;100.00
65760;BME280;52496;51.082;5.066;2022-11-11T01:19:35;102856.03;;;8.35;100.00
65760;BME280;52496;51.082;5.066;2022-11-11T01:22:05;102865.00;;;8.34;100.00
65760;BME280;52496;51.082;5.066;2022-11-11T01:24:36;102868.88;;;8.30;100.00
65760;BME280;52496;51.082;5.066;2022-11-11T01:27:07;102862.09;;;8.25;100.00
65760;BME280;52496;51.082;5.066;2022-11-11T01:29:38;102865.00;;;8.22;100.00
65760;BME280;52496;51.082;5.066;2022-11-11T01:32:08;102860.84;;;8.18;100.00
65760;BME280;52496;51.082;5.066;2022-11-11T01:34:39;102866.41;;;8.15;100.00
65760;BME280;52496;51.082;5.066;2022-11-11T01:37:09;102871.16;;;8.12;100.00
65760;BME280;52496;51.082;5.066;2022-11-11T01:39:40;102872.22;;;8.09;100.00
65760;BME280;52496;51.082;5.066;2022-11-11T01:42:10;102869.69;;;8.08;100.00
65760;BME280;52496;51.082;5.066;2022-11-11T01:44:46;102875.13;;;8.06;100.00
65760;BME280;52496;51.082;5.066;2022-11-11T01:47:17;102880.59;;;8.04;100.00
65760;BME280;52496;51.082;5.066;2022-11-11T01:54:57;102883.50;;;8.01;100.00
65760;BME280;52496;51.082;5.066;2022-11-11T02:00:09;102887.25;;;7.99;100.00
65760;BME280;52496;51.082;5.066;2022-11-11T02:05:21;102881.63;;;7.91;100.00
65760;BME280;52496;51.082;5.066;2022-11-11T02:08:30;102888.31;;;7.85;100.00
65760;BME280;52496;51.082;5.066;2022-11-11T02:13:38;102893.47;;;7.75;100.00
65760;BME280;52496;51.082;5.066;2022-11-11T02:16:28;102881.44;;;7.70;100.00
65760;BME280;52496;51.082;5.066;2022-11-11T02:19:00;102873.81;;;7.65;100.00
65760;BME280;52496;51.082;5.066;2022-11-11T02:21:44;102873.31;;;7.60;100.00
65760;BME280;52496;51.082;5.066;2022-11-11T02:24:19;102873.75;;;7.54;100.00
65760;BME280;52496;51.082;5.066;2022-11-11T02:26:52;102876.88;;;7.48;100.00
65760;BME280;52496;51.082;5.066;2022-11-11T02:29:23;102875.44;;;7.44;100.00
65760;BME280;52496;51.082;5.066;2022-11-11T02:31:55;102873.09;;;7.39;100.00
65760;BME280;52496;51.082;5.066;2022-11-11T02:34:31;102880.47;;;7.35;100.00
65760;BME280;52496;51.082;5.066;2022-11-11T02:37:05;102872.94;;;7.29;100.00
65760;BME280;52496;51.082;5.066;2022-11-11T02:39:42;102871.69;;;7.22;100.00
65760;BME280;52496;51.082;5.066;2022-11-11T02:42:14;102861.50;;;7.16;100.00
65760;BME280;52496;51.082;5.066;2022-11-11T02:44:46;102862.66;;;7.12;100.00
65760;BME280;52496;51.082;5.066;2022-11-11T02:47:17;102869.19;;;7.08;100.00
65760;BME280;52496;51.082;5.066;2022-11-11T02:49:47;102865.78;;;7.06;100.00
65760;BME280;52496;51.082;5.066;2022-11-11T02:52:18;102860.69;;;7.03;100.00
65760;BME280;52496;51.082;5.066;2022-11-11T02:54:48;102850.25;;;7.00;100.00
65760;BME280;52496;51.082;5.066;2022-11-11T02:57:19;102855.56;;;7.00;100.00
65760;BME280;52496;51.082;5.066;2022-11-11T02:59:50;102858.38;;;6.98;100.00
65760;BME280;52496;51.082;5.066;2022-11-11T03:02:21;102863.91;;;6.95;100.00
65760;BME280;52496;51.082;5.066;2022-11-11T03:04:57;102861.56;;;6.90;100.00
65760;BME280;52496;51.082;5.066;2022-11-11T03:07:27;102862.00;;;6.84;100.00
65760;BME280;52496;51.082;5.066;2022-11-11T03:09:58;102862.22;;;6.81;100.00
65760;BME280;52496;51.082;5.066;2022-11-11T03:12:28;102861.38;;;6.81;100.00
65760;BME280;52496;51.082;5.066;2022-11-11T03:14:59;102858.84;;;6.79;100.00
65760;BME280;52496;51.082;5.066;2022-11-11T03:17:29;102866.91;;;6.78;100.00
65760;BME280;52496;51.082;5.066;2022-11-11T03:20:14;102851.81;;;6.78;100.00
65760;BME280;52496;51.082;5.066;2022-11-11T03:23:08;102849.38;;;6.75;100.00
65760;BME280;52496;51.082;5.066;2022-11-11T03:28:21;102845.06;;;6.61;100.00
65760;BME280;52496;51.082;5.066;2022-11-11T03:30:54;102845.38;;;6.57;100.00
65760;BME280;52496;51.082;5.066;2022-11-11T03:33:24;102844.66;;;6.55;100.00
65760;BME280;52496;51.082;5.066;2022-11-11T03:35:55;102848.47;;;6.51;100.00
65760;BME280;52496;51.082;5.066;2022-11-11T03:38:25;102852.19;;;6.48;100.00
65760;BME280;52496;51.082;5.066;2022-11-11T03:40:56;102849.75;;;6.45;100.00
65760;BME280;52496;51.082;5.066;2022-11-11T03:43:29;102851.69;;;6.43;100.00
65760;BME280;52496;51.082;5.066;2022-11-11T03:46:01;102852.63;;;6.42;100.00
65760;BME280;52496;51.082;5.066;2022-11-11T03:48:33;102853.72;;;6.39;100.00
65760;BME280;52496;51.082;5.066;2022-11-11T03:51:04;102850.38;;;6.36;100.00
65760;BME280;52496;51.082;5.066;2022-11-11T03:53:34;102844.66;;;6.29;100.00
65760;BME280;52496;51.082;5.066;2022-11-11T03:56:05;102853.81;;;6.25;100.00
65760;BME280;52496;51.082;5.066;2022-11-11T03:58:36;102850.63;;;6.20;100.00
65760;BME280;52496;51.082;5.066;2022-11-11T04:01:06;102858.59;;;6.20;100.00
65760;BME280;52496;51.082;5.066;2022-11-11T04:03:57;102852.34;;;6.21;100.00
65760;BME280;52496;51.082;5.066;2022-11-11T04:06:46;102848.94;;;6.19;100.00
65760;BME280;52496;51.082;5.066;2022-11-11T04:09:35;102855.22;;;6.18;100.00
65760;BME280;52496;51.082;5.066;2022-11-11T04:12:24;102858.94;;;6.15;100.00
65760;BME280;52496;51.082;5.066;2022-11-11T04:14:56;102852.75;;;6.15;100.00
65760;BME280;52496;51.082;5.066;2022-11-11T04:17:45;102853.69;;;6.14;100.00
65760;BME280;52496;51.082;5.066;2022-11-11T04:20:15;102861.66;;;6.14;100.00
65760;BME280;52496;51.082;5.066;2022-11-11T04:23:04;102854.66;;;6.13;100.00
65760;BME280;52496;51.082;5.066;2022-11-11T04:25:35;102859.44;;;6.08;100.00
65760;BME280;52496;51.082;5.066;2022-11-11T04:28:32;102860.63;;;6.04;100.00
65760;BME280;52496;51.082;5.066;2022-11-11T04:31:22;102859.22;;;5.98;100.00
65760;BME280;52496;51.082;5.066;2022-11-11T04:33:52;102859.56;;;5.93;100.00
65760;BME280;52496;51.082;5.066;2022-11-11T04:36:23;102859.91;;;5.87;100.00
65760;BME280;52496;51.082;5.066;2022-11-11T04:38:53;102861.19;;;5.82;100.00
65760;BME280;52496;51.082;5.066;2022-11-11T04:41:43;102858.84;;;5.77;100.00
65760;BME280;52496;51.082;5.066;2022-11-11T04:44:13;102859.25;;;5.71;100.00
65760;BME280;52496;51.082;5.066;2022-11-11T04:47:03;102855.19;;;5.65;100.00
65760;BME280;52496;51.082;5.066;2022-11-11T04:49:33;102850.31;;;5.59;100.00
65760;BME280;52496;51.082;5.066;2022-11-11T04:52:03;102851.34;;;5.57;100.00
65760;BME280;52496;51.082;5.066;2022-11-11T04:54:56;102852.44;;;5.54;100.00
65760;BME280;52496;51.082;5.066;2022-11-11T04:57:47;102848.19;;;5.51;100.00
65760;BME280;52496;51.082;5.066;2022-11-11T05:00:18;102843.06;;;5.48;100.00
65760;BME280;52496;51.082;5.066;2022-11-11T05:02:52;102844.97;;;5.46;100.00
65760;BME280;52496;51.082;5.066;2022-11-11T05:05:45;102842.31;;;5.46;100.00
65760;BME280;52496;51.082;5.066;2022-11-11T05:08:37;102836.38;;;5.43;100.00
65760;BME280;52496;51.082;5.066;2022-11-11T05:11:33;102845.09;;;5.45;100.00
65760;BME280;52496;51.082;5.066;2022-11-11T05:14:05;102844.69;;;5.51;100.00
65760;BME280;52496;51.082;5.066;2022-11-11T05:16:57;102846.59;;;5.62;100.00
65760;BME280;52496;51.082;5.066;2022-11-11T05:19:46;102855.84;;;5.69;100.00
65760;BME280;52496;51.082;5.066;2022-11-11T05:22:37;102850.13;;;5.75;100.00
65760;BME280;52496;51.082;5.066;2022-11-11T05:25:10;102862.06;;;5.82;100.00
65760;BME280;52496;51.082;5.066;2022-11-11T05:27:59;102864.50;;;5.85;100.00
65760;BME280;52496;51.082;5.066;2022-11-11T05:30:30;102866.94;;;5.88;100.00
65760;BME280;52496;51.082;5.066;2022-11-11T05:33:01;102858.00;;;5.89;100.00
65760;BME280;52496;51.082;5.066;2022-11-11T05:35:32;102869.38;;;5.91;100.00
65760;BME280;52496;51.082;5.066;2022-11-11T05:38:02;102864.00;;;5.93;100.00
65760;BME280;52496;51.082;5.066;2022-11-11T05:40:51;102867.41;;;5.95;100.00
65760;BME280;52496;51.082;5.066;2022-11-11T05:43:24;102863.91;;;5.94;100.00
65760;BME280;52496;51.082;5.066;2022-11-11T05:45:54;102860.47;;;5.92;100.00
65760;BME280;52496;51.082;5.066;2022-11-11T05:48:25;102864.00;;;5.93;100.00
65760;BME280;52496;51.082;5.066;2022-11-11T05:50:57;102861.44;;;5.91;100.00
65760;BME280;52496;51.082;5.066;2022-11-11T05:53:28;102867.69;;;5.90;100.00
65760;BME280;52496;51.082;5.066;2022-11-11T05:55:59;102870.34;;;5.90;100.00
65760;BME280;52496;51.082;5.066;2022-11-11T05:58:29;102869.47;;;5.90;100.00
65760;BME280;52496;51.082;5.066;2022-11-11T06:01:00;102873.09;;;5.89;100.00
65760;BME280;52496;51.082;5.066;2022-11-11T06:03:30;102868.00;;;5.86;100.00
65760;BME280;52496;51.082;5.066;2022-11-11T06:06:01;102871.81;;;5.82;100.00
65760;BME280;52496;51.082;5.066;2022-11-11T06:08:31;102876.47;;;5.78;100.00
65760;BME280;52496;51.082;5.066;2022-11-11T06:11:02;102867.78;;;5.76;100.00
65760;BME280;52496;51.082;5.066;2022-11-11T06:13:32;102872.13;;;5.77;100.00
65760;BME280;52496;51.082;5.066;2022-11-11T06:16:04;102878.59;;;5.73;100.00
65760;BME280;52496;51.082;5.066;2022-11-11T06:18:35;102887.69;;;5.69;100.00
65760;BME280;52496;51.082;5.066;2022-11-11T06:21:06;102892.69;;;5.61;100.00
65760;BME280;52496;51.082;5.066;2022-11-11T06:23:37;102895.63;;;5.56;100.00
65760;BME280;52496;51.082;5.066;2022-11-11T06:26:11;102881.72;;;5.52;100.00
65760;BME280;52496;51.082;5.066;2022-11-11T06:28:52;102893.38;;;5.50;100.00
65760;BME280;52496;51.082;5.066;2022-11-11T06:31:25;102889.13;;;5.47;100.00
65760;BME280;52496;51.082;5.066;2022-11-11T06:33:56;102893.91;;;5.42;100.00
65760;BME280;52496;51.082;5.066;2022-11-11T06:36:27;102891.66;;;5.36;100.00
65760;BME280;52496;51.082;5.066;2022-11-11T06:38:57;102894.59;;;5.32;100.00
65760;BME280;52496;51.082;5.066;2022-11-11T06:41:28;102900.00;;;5.30;100.00
65760;BME280;52496;51.082;5.066;2022-11-11T06:43:58;102902.00;;;5.26;100.00
65760;BME280;52496;51.082;5.066;2022-11-11T06:46:29;102909.22;;;5.24;100.00
65760;BME280;52496;51.082;5.066;2022-11-11T06:48:59;102908.38;;;5.24;100.00
65760;BME280;52496;51.082;5.066;2022-11-11T06:51:30;102909.97;;;5.26;100.00
65760;BME280;52496;51.082;5.066;2022-11-11T06:54:00;102902.88;;;5.27;100.00
65760;BME280;52496;51.082;5.066;2022-11-11T06:56:31;102910.19;;;5.23;100.00
65760;BME280;52496;51.082;5.066;2022-11-11T06:59:01;102915.75;;;5.19;100.00
65760;BME280;52496;51.082;5.066;2022-11-11T07:01:32;102920.31;;;5.17;100.00
65760;BME280;52496;51.082;5.066;2022-11-11T07:04:02;102917.66;;;5.17;100.00
65760;BME280;52496;51.082;5.066;2022-11-11T07:06:33;102926.56;;;5.16;100.00
65760;BME280;52496;51.082;5.066;2022-11-11T07:09:03;102934.72;;;5.13;100.00
65760;BME280;52496;51.082;5.066;2022-11-11T07:11:34;102929.41;;;5.13;100.00
65760;BME280;52496;51.082;5.066;2022-11-11T07:14:05;102938.97;;;5.15;100.00
65760;BME280;52496;51.082;5.066;2022-11-11T07:16:36;102942.47;;;5.16;100.00
65760;BME280;52496;51.082;5.066;2022-11-11T07:19:06;102932.72;;;5.16;100.00
65760;BME280;52496;51.082;5.066;2022-11-11T07:21:37;102939.44;;;5.22;100.00
65760;BME280;52496;51.082;5.066;2022-11-11T07:24:07;102932.03;;;5.27;100.00
65760;BME280;52496;51.082;5.066;2022-11-11T07:26:38;102928.81;;;5.36;100.00
65760;BME280;52496;51.082;5.066;2022-11-11T07:29:09;102931.59;;;5.47;100.00
65760;BME280;52496;51.082;5.066;2022-11-11T07:31:41;102931.88;;;5.57;100.00
65760;BME280;52496;51.082;5.066;2022-11-11T07:34:12;102935.69;;;5.66;100.00
65760;BME280;52496;51.082;5.066;2022-11-11T07:36:42;102930.72;;;5.74;100.00
65760;BME280;52496;51.082;5.066;2022-11-11T07:39:13;102931.09;;;5.82;100.00
65760;BME280;52496;51.082;5.066;2022-11-11T07:41:43;102939.41;;;5.90;100.00
65760;BME280;52496;51.082;5.066;2022-11-11T07:44:14;102939.03;;;5.96;100.00
65760;BME280;52496;51.082;5.066;2022-11-11T07:46:44;102944.13;;;6.00;100.00
65760;BME280;52496;51.082;5.066;2022-11-11T07:49:15;102942.84;;;6.05;100.00
65760;BME280;52496;51.082;5.066;2022-11-11T07:51:47;102947.75;;;6.11;100.00
65760;BME280;52496;51.082;5.066;2022-11-11T07:54:17;102947.31;;;6.17;100.00
65760;BME280;52496;51.082;5.066;2022-11-11T07:56:48;102947.03;;;6.22;100.00
65760;BME280;52496;51.082;5.066;2022-11-11T07:59:19;102942.25;;;6.27;100.00
65760;BME280;52496;51.082;5.066;2022-11-11T08:01:50;102954.38;;;6.31;100.00
65760;BME280;52496;51.082;5.066;2022-11-11T08:04:20;102952.25;;;6.36;100.00
65760;BME280;52496;51.082;5.066;2022-11-11T08:06:52;102953.75;;;6.40;100.00
65760;BME280;52496;51.082;5.066;2022-11-11T08:09:23;102955.13;;;6.46;100.00
65760;BME280;52496;51.082;5.066;2022-11-11T08:11:53;102959.28;;;6.50;100.00
65760;BME280;52496;51.082;5.066;2022-11-11T08:14:42;102963.31;;;6.56;100.00
65760;BME280;52496;51.082;5.066;2022-11-11T08:17:13;102966.50;;;6.61;100.00
65760;BME280;52496;51.082;5.066;2022-11-11T08:19:43;102959.06;;;6.66;100.00
65760;BME280;52496;51.082;5.066;2022-11-11T08:22:16;102965.66;;;6.73;100.00
65760;BME280;52496;51.082;5.066;2022-11-11T08:24:47;102964.38;;;6.79;100.00
65760;BME280;52496;51.082;5.066;2022-11-11T08:27:18;102965.66;;;6.86;100.00
65760;BME280;52496;51.082;5.066;2022-11-11T08:29:48;102967.75;;;6.94;100.00
65760;BME280;52496;51.082;5.066;2022-11-11T08:32:19;102969.88;;;7.01;100.00
65760;BME280;52496;51.082;5.066;2022-11-11T08:34:49;102970.28;;;7.08;100.00
65760;BME280;52496;51.082;5.066;2022-11-11T08:37:20;102967.94;;;7.16;100.00
65760;BME280;52496;51.082;5.066;2022-11-11T08:39:50;102977.16;;;7.23;100.00
65760;BME280;52496;51.082;5.066;2022-11-11T08:42:21;102966.84;;;7.31;100.00
65760;BME280;52496;51.082;5.066;2022-11-11T08:44:52;102968.09;;;7.39;100.00
65760;BME280;52496;51.082;5.066;2022-11-11T08:47:23;102958.69;;;7.46;100.00
65760;BME280;52496;51.082;5.066;2022-11-11T08:49:53;102958.88;;;7.55;100.00
65760;BME280;52496;51.082;5.066;2022-11-11T08:52:24;102959.03;;;7.65;100.00
65760;BME280;52496;51.082;5.066;2022-11-11T08:54:55;102958.13;;;7.77;100.00
65760;BME280;52496;51.082;5.066;2022-11-11T08:57:25;102961.47;;;7.92;100.00
65760;BME280;52496;51.082;5.066;2022-11-11T08:59:56;102956.06;;;8.05;100.00
65760;BME280;52496;51.082;5.066;2022-11-11T09:02:26;102953.19;;;8.19;100.00
65760;BME280;52496;51.082;5.066;2022-11-11T09:04:57;102962.69;;;8.35;100.00
65760;BME280;52496;51.082;5.066;2022-11-11T09:07:27;102956.44;;;8.47;100.00
65760;BME280;52496;51.082;5.066;2022-11-11T09:09:58;102963.25;;;8.62;100.00
65760;BME280;52496;51.082;5.066;2022-11-11T09:12:29;102965.81;;;8.75;100.00
65760;BME280;52496;51.082;5.066;2022-11-11T09:14:59;102969.09;;;8.90;100.00
65760;BME280;52496;51.082;5.066;2022-11-11T09:17:30;102962.63;;;9.04;100.00
65760;BME280;52496;51.082;5.066;2022-11-11T09:20:02;102965.19;;;9.16;100.00
65760;BME280;52496;51.082;5.066;2022-11-11T09:22:41;102967.81;;;9.28;100.00
65760;BME280;52496;51.082;5.066;2022-11-11T09:25:12;102973.88;;;9.41;100.00
65760;BME280;52496;51.082;5.066;2022-11-11T09:27:43;102979.91;;;9.54;100.00
65760;BME280;52496;51.082;5.066;2022-11-11T09:30:14;102981.72;;;9.65;100.00
65760;BME280;52496;51.082;5.066;2022-11-11T09:32:45;102976.47;;;9.75;100.00
65760;BME280;52496;51.082;5.066;2022-11-11T09:35:15;102981.63;;;9.87;100.00
65760;BME280;52496;51.082;5.066;2022-11-11T09:37:55;102982.44;;;9.99;100.00
65760;BME280;52496;51.082;5.066;2022-11-11T09:40:28;102989.44;;;10.11;100.00
65760;BME280;52496;51.082;5.066;2022-11-11T09:43:31;102986.47;;;10.26;100.00
65760;BME280;52496;51.082;5.066;2022-11-11T09:49:09;102998.22;;;10.55;100.00
65760;BME280;52496;51.082;5.066;2022-11-11T09:54:51;103000.22;;;10.84;100.00
65760;BME280;52496;51.082;5.066;2022-11-11T09:57:38;102996.72;;;10.93;100.00
65760;BME280;52496;51.082;5.066;2022-11-11T10:00:20;102995.38;;;11.09;100.00
65760;BME280;52496;51.082;5.066;2022-11-11T10:02:54;102988.66;;;11.24;100.00
65760;BME280;52496;51.082;5.066;2022-11-11T10:06:17;102999.28;;;11.35;99.65
65760;BME280;52496;51.082;5.066;2022-11-11T10:08:28;103004.50;;;11.46;99.32
65760;BME280;52496;51.082;5.066;2022-11-11T10:11:00;103008.09;;;11.57;98.24
65760;BME280;52496;51.082;5.066;2022-11-11T10:13:37;103001.72;;;11.67;98.65
65760;BME280;52496;51.082;5.066;2022-11-11T10:21:56;103007.44;;;12.13;96.54
65760;BME280;52496;51.082;5.066;2022-11-11T10:24:31;103006.31;;;12.25;93.97
65760;BME280;52496;51.082;5.066;2022-11-11T10:27:14;103009.53;;;12.38;94.27
65760;BME280;52496;51.082;5.066;2022-11-11T10:29:47;103003.72;;;12.53;92.99
65760;BME280;52496;51.082;5.066;2022-11-11T10:32:28;103001.59;;;12.66;91.07
65760;BME280;52496;51.082;5.066;2022-11-11T10:35:23;103012.69;;;12.81;90.61
65760;BME280;52496;51.082;5.066;2022-11-11T10:40:56;103010.19;;;13.07;89.85
65760;BME280;52496;51.082;5.066;2022-11-11T10:43:29;102996.16;;;13.13;88.14
65760;BME280;52496;51.082;5.066;2022-11-11T10:46:10;103002.06;;;13.26;87.13
65760;BME280;52496;51.082;5.066;2022-11-11T10:51:35;103001.06;;;13.55;87.66
65760;BME280;52496;51.082;5.066;2022-11-11T10:54:12;103001.22;;;13.71;85.67
65760;BME280;52496;51.082;5.066;2022-11-11T10:56:55;102993.56;;;13.76;85.18
65760;BME280;52496;51.082;5.066;2022-11-11T11:00:21;102991.56;;;13.79;84.20
65760;BME280;52496;51.082;5.066;2022-11-11T11:05:28;102990.03;;;13.94;84.80
65760;BME280;52496;51.082;5.066;2022-11-11T11:08:08;102996.47;;;14.01;83.25
65760;BME280;52496;51.082;5.066;2022-11-11T11:10:47;102995.53;;;14.10;83.63
65760;BME280;52496;51.082;5.066;2022-11-11T11:13:29;102995.31;;;14.21;82.86
65760;BME280;52496;51.082;5.066;2022-11-11T11:16:09;102990.88;;;14.38;83.44
65760;BME280;52496;51.082;5.066;2022-11-11T11:18:42;102985.34;;;14.58;83.25
65760;BME280;52496;51.082;5.066;2022-11-11T11:21:13;102984.22;;;14.68;81.32
65760;BME280;52496;51.082;5.066;2022-11-11T11:23:45;102981.56;;;14.77;81.34
65760;BME280;52496;51.082;5.066;2022-11-11T11:26:16;102982.63;;;14.84;80.40
65760;BME280;52496;51.082;5.066;2022-11-11T11:28:58;102976.44;;;14.91;80.26
65760;BME280;52496;51.082;5.066;2022-11-11T11:31:36;102977.94;;;14.94;80.40
65760;BME280;52496;51.082;5.066;2022-11-11T11:34:08;102984.06;;;15.04;79.23
65760;BME280;52496;51.082;5.066;2022-11-11T11:36:39;102982.91;;;15.15;79.40
65760;BME280;52496;51.082;5.066;2022-11-11T11:39:10;102983.47;;;15.27;78.39
65760;BME280;52496;51.082;5.066;2022-11-11T11:41:42;102980.81;;;15.35;77.49
65760;BME280;52496;51.082;5.066;2022-11-11T11:44:30;102970.56;;;15.47;78.06
65760;BME280;52496;51.082;5.066;2022-11-11T11:47:21;102972.41;;;15.54;77.83
65760;BME280;52496;51.082;5.066;2022-11-11T11:55:43;102962.69;;;15.62;76.91
65760;BME280;52496;51.082;5.066;2022-11-11T11:58:41;102967.06;;;15.63;75.82
65760;BME280;52496;51.082;5.066;2022-11-11T12:01:43;102974.47;;;15.60;75.68
65760;BME280;52496;51.082;5.066;2022-11-11T12:13:09;102974.78;;;15.49;75.75
65760;BME280;52496;51.082;5.066;2022-11-11T12:19:34;102967.84;;;15.38;76.17
65760;BME280;52496;51.082;5.066;2022-11-11T12:24:44;102968.72;;;15.47;76.38
65760;BME280;52496;51.082;5.066;2022-11-11T12:27:29;102969.06;;;15.52;75.56
65760;BME280;52496;51.082;5.066;2022-11-11T12:30:09;102966.88;;;15.56;75.05
65760;BME280;52496;51.082;5.066;2022-11-11T12:44:06;102942.81;;;15.71;75.59
65760;BME280;52496;51.082;5.066;2022-11-11T12:47:16;102943.47;;;15.65;74.10
65760;BME280;52496;51.082;5.066;2022-11-11T12:55:35;102938.28;;;15.71;74.51
65760;BME280;52496;51.082;5.066;2022-11-11T13:12:31;102919.53;;;16.11;73.92
65760;BME280;52496;51.082;5.066;2022-11-11T13:15:11;102918.53;;;16.12;71.69
65760;BME280;52496;51.082;5.066;2022-11-11T13:17:44;102919.22;;;16.05;72.26
65760;BME280;52496;51.082;5.066;2022-11-11T13:22:54;102919.88;;;15.91;72.41
65760;BME280;52496;51.082;5.066;2022-11-11T13:25:28;102917.19;;;15.91;73.00
65760;BME280;52496;51.082;5.066;2022-11-11T13:28:08;102910.44;;;15.79;72.60
65760;BME280;52496;51.082;5.066;2022-11-11T13:33:35;102912.28;;;15.78;73.40
65760;BME280;52496;51.082;5.066;2022-11-11T13:36:11;102906.41;;;15.83;74.05
65760;BME280;52496;51.082;5.066;2022-11-11T13:38:53;102910.78;;;15.84;73.60
65760;BME280;52496;51.082;5.066;2022-11-11T13:41:27;102903.38;;;15.86;73.27
65760;BME280;52496;51.082;5.066;2022-11-11T13:44:01;102900.84;;;15.85;73.19
65760;BME280;52496;51.082;5.066;2022-11-11T13:46:33;102907.25;;;15.83;72.99
65760;BME280;52496;51.082;5.066;2022-11-11T13:49:08;102909.09;;;15.75;73.22
65760;BME280;52496;51.082;5.066;2022-11-11T13:51:42;102903.34;;;15.70;73.40
65760;BME280;52496;51.082;5.066;2022-11-11T13:54:32;102897.97;;;15.70;74.71
65760;BME280;52496;51.082;5.066;2022-11-11T13:57:16;102899.13;;;15.67;73.72
65760;BME280;52496;51.082;5.066;2022-11-11T14:02:47;102889.00;;;15.61;73.26
65760;BME280;52496;51.082;5.066;2022-11-11T14:05:20;102886.81;;;15.56;73.62
65760;BME280;52496;51.082;5.066;2022-11-11T14:07:53;102889.84;;;15.53;73.44
65760;BME280;52496;51.082;5.066;2022-11-11T14:15:53;102898.44;;;15.41;75.99
65760;BME280;52496;51.082;5.066;2022-11-11T14:20:54;102883.59;;;15.28;75.58
65760;BME280;52496;51.082;5.066;2022-11-11T14:23:35;102890.47;;;15.23;76.43
65760;BME280;52496;51.082;5.066;2022-11-11T14:41:53;102876.13;;;14.63;82.41
65760;BME280;52496;51.082;5.066;2022-11-11T14:49:50;102884.03;;;14.31;82.22
65760;BME280;52496;51.082;5.066;2022-11-11T14:55:24;102882.84;;;14.07;84.74
65760;BME280;52496;51.082;5.066;2022-11-11T14:58:16;102875.34;;;13.93;85.52
65760;BME280;52496;51.082;5.066;2022-11-11T15:01:11;102881.13;;;13.80;86.14
65760;BME280;52496;51.082;5.066;2022-11-11T15:03:45;102880.69;;;13.67;86.49
65760;BME280;52496;51.082;5.066;2022-11-11T15:14:51;102874.97;;;13.16;88.61
65760;BME280;52496;51.082;5.066;2022-11-11T15:20:54;102873.03;;;12.91;90.00
65760;BME280;52496;51.082;5.066;2022-11-11T15:37:47;102873.66;;;11.90;94.58
65760;BME280;52496;51.082;5.066;2022-11-11T15:40:20;102876.75;;;11.76;95.45
65760;BME280;52496;51.082;5.066;2022-11-11T15:42:52;102877.16;;;11.62;95.95
65760;BME280;52496;51.082;5.066;2022-11-11T15:45:27;102890.00;;;11.48;96.53
65760;BME280;52496;51.082;5.066;2022-11-11T15:48:01;102877.31;;;11.31;96.75
65760;BME280;52496;51.082;5.066;2022-11-11T15:50:33;102889.13;;;11.19;96.88
65760;BME280;52496;51.082;5.066;2022-11-11T15:53:22;102883.47;;;11.02;98.27
65760;BME280;52496;51.082;5.066;2022-11-11T15:55:55;102887.38;;;10.89;99.06
65760;BME280;52496;51.082;5.066;2022-11-11T15:58:29;102889.28;;;10.77;99.90
65760;BME280;52496;51.082;5.066;2022-11-11T16:01:06;102883.34;;;10.64;100.00
65760;BME280;52496;51.082;5.066;2022-11-11T16:03:41;102886.97;;;10.53;100.00
65760;BME280;52496;51.082;5.066;2022-11-11T16:06:14;102900.44;;;10.42;100.00
65760;BME280;52496;51.082;5.066;2022-11-11T16:08:49;102897.72;;;10.32;100.00